sensor_id;sensor_type;location;lat;lon;timestamp;P1;durP1;ratioP1;P2;durP2;ratioP2
27957;SDS011;15295;42.658;23.374;2022-10-16T00:02:06;22.55;;;14.32;;
27957;SDS011;15295;42.658;23.374;2022-10-16T00:04:35;22.25;;;14.30;;
27957;SDS011;15295;42.658;23.374;2022-10-16T00:07:03;25.27;;;15.15;;
27957;SDS011;15295;42.658;23.374;2022-10-16T00:10:04;21.73;;;14.48;;
27957;SDS011;15295;42.658;23.374;2022-10-16T00:12:32;21.05;;;14.55;;
27957;SDS011;15295;42.658;23.374;2022-10-16T00:14:58;23.85;;;13.93;;
27957;SDS011;15295;42.658;23.374;2022-10-16T00:19:51;24.77;;;13.18;;
27957;SDS011;15295;42.658;23.374;2022-10-16T00:22:22;19.55;;;12.30;;
27957;SDS011;15295;42.658;23.374;2022-10-16T00:24:54;23.83;;;13.20;;
27957;SDS011;15295;42.658;23.374;2022-10-16T00:27:20;23.05;;;14.23;;
27957;SDS011;15295;42.658;23.374;2022-10-16T00:29:50;18.52;;;12.70;;
27957;SDS011;15295;42.658;23.374;2022-10-16T00:32:18;17.95;;;11.73;;
27957;SDS011;15295;42.658;23.374;2022-10-16T00:34:46;17.48;;;12.48;;
27957;SDS011;15295;42.658;23.374;2022-10-16T00:37:12;21.75;;;13.23;;
27957;SDS011;15295;42.658;23.374;2022-10-16T00:39:38;18.15;;;12.13;;
27957;SDS011;15295;42.658;23.374;2022-10-16T00:42:15;21.38;;;11.25;;
27957;SDS011;15295;42.658;23.374;2022-10-16T00:47:57;21.45;;;12.02;;
27957;SDS011;15295;42.658;23.374;2022-10-16T00:50:43;19.73;;;11.43;;
27957;SDS011;15295;42.658;23.374;2022-10-16T00:53:16;21.08;;;11.68;;
27957;SDS011;15295;42.658;23.374;2022-10-16T00:58:37;18.27;;;11.48;;
27957;SDS011;15295;42.658;23.374;2022-10-16T01:01:06;23.67;;;11.75;;
27957;SDS011;15295;42.658;23.374;2022-10-16T01:03:40;23.85;;;12.95;;
27957;SDS011;15295;42.658;23.374;2022-10-16T01:06:21;23.52;;;12.07;;
27957;SDS011;15295;42.658;23.374;2022-10-16T01:12:39;19.10;;;12.07;;
27957;SDS011;15295;42.658;23.374;2022-10-16T01:21:42;21.15;;;13.52;;
27957;SDS011;15295;42.658;23.374;2022-10-16T01:27:29;20.17;;;12.35;;
27957;SDS011;15295;42.658;23.374;2022-10-16T01:30:13;18.52;;;12.77;;
27957;SDS011;15295;42.658;23.374;2022-10-16T01:33:04;22.55;;;13.18;;
27957;SDS011;15295;42.658;23.374;2022-10-16T01:39:01;15.23;;;9.45;;
27957;SDS011;15295;42.658;23.374;2022-10-16T01:41:46;14.38;;;8.50;;
27957;SDS011;15295;42.658;23.374;2022-10-16T01:44:48;16.70;;;7.80;;
27957;SDS011;15295;42.658;23.374;2022-10-16T01:48:09;13.05;;;7.82;;
27957;SDS011;15295;42.658;23.374;2022-10-16T02:00:01;10.02;;;5.97;;
27957;SDS011;15295;42.658;23.374;2022-10-16T02:02:33;10.43;;;5.85;;
27957;SDS011;15295;42.658;23.374;2022-10-16T02:16:26;11.90;;;6.60;;
27957;SDS011;15295;42.658;23.374;2022-10-16T02:22:04;9.63;;;6.38;;
27957;SDS011;15295;42.658;23.374;2022-10-16T02:25:21;10.43;;;6.38;;
27957;SDS011;15295;42.658;23.374;2022-10-16T02:28:17;12.15;;;6.95;;
27957;SDS011;15295;42.658;23.374;2022-10-16T02:31:37;11.48;;;6.45;;
27957;SDS011;15295;42.658;23.374;2022-10-16T02:34:17;11.80;;;6.35;;
27957;SDS011;15295;42.658;23.374;2022-10-16T02:37:13;9.45;;;6.28;;
27957;SDS011;15295;42.658;23.374;2022-10-16T02:40:20;10.20;;;6.40;;
27957;SDS011;15295;42.658;23.374;2022-10-16T02:42:58;11.30;;;6.43;;
27957;SDS011;15295;42.658;23.374;2022-10-16T02:45:39;9.35;;;6.05;;
27957;SDS011;15295;42.658;23.374;2022-10-16T02:48:24;8.38;;;5.93;;
27957;SDS011;15295;42.658;23.374;2022-10-16T02:51:10;8.05;;;6.18;;
27957;SDS011;15295;42.658;23.374;2022-10-16T02:57:04;10.68;;;6.70;;
27957;SDS011;15295;42.658;23.374;2022-10-16T02:59:41;17.05;;;7.18;;
27957;SDS011;15295;42.658;23.374;2022-10-16T03:02:45;9.20;;;6.97;;
27957;SDS011;15295;42.658;23.374;2022-10-16T03:05:54;11.95;;;6.82;;
27957;SDS011;15295;42.658;23.374;2022-10-16T03:08:30;13.63;;;7.43;;
27957;SDS011;15295;42.658;23.374;2022-10-16T03:16:57;12.20;;;7.93;;
27957;SDS011;15295;42.658;23.374;2022-10-16T03:19:59;12.63;;;7.90;;
27957;SDS011;15295;42.658;23.374;2022-10-16T03:23:00;13.35;;;7.93;;
27957;SDS011;15295;42.658;23.374;2022-10-16T03:28:53;13.88;;;8.27;;
27957;SDS011;15295;42.658;23.374;2022-10-16T03:31:23;12.30;;;8.50;;
27957;SDS011;15295;42.658;23.374;2022-10-16T03:34:02;13.65;;;8.00;;
27957;SDS011;15295;42.658;23.374;2022-10-16T03:36:52;12.40;;;8.20;;
27957;SDS011;15295;42.658;23.374;2022-10-16T03:40:01;10.90;;;8.18;;
27957;SDS011;15295;42.658;23.374;2022-10-16T03:43:23;16.63;;;8.98;;
27957;SDS011;15295;42.658;23.374;2022-10-16T03:46:10;13.35;;;8.85;;
27957;SDS011;15295;42.658;23.374;2022-10-16T03:49:23;14.02;;;9.15;;
27957;SDS011;15295;42.658;23.374;2022-10-16T03:52:08;14.60;;;8.95;;
27957;SDS011;15295;42.658;23.374;2022-10-16T03:55:02;18.55;;;8.68;;
27957;SDS011;15295;42.658;23.374;2022-10-16T03:57:51;12.50;;;8.65;;
27957;SDS011;15295;42.658;23.374;2022-10-16T04:00:20;11.80;;;9.00;;
27957;SDS011;15295;42.658;23.374;2022-10-16T04:02:56;11.52;;;8.93;;
27957;SDS011;15295;42.658;23.374;2022-10-16T04:05:43;15.07;;;9.05;;
27957;SDS011;15295;42.658;23.374;2022-10-16T04:08:38;14.48;;;8.23;;
27957;SDS011;15295;42.658;23.374;2022-10-16T04:14:15;16.25;;;8.82;;
27957;SDS011;15295;42.658;23.374;2022-10-16T04:17:10;14.90;;;9.63;;
27957;SDS011;15295;42.658;23.374;2022-10-16T04:22:50;16.73;;;9.95;;
27957;SDS011;15295;42.658;23.374;2022-10-16T04:26:01;15.90;;;9.50;;
27957;SDS011;15295;42.658;23.374;2022-10-16T04:28:46;20.45;;;10.20;;
27957;SDS011;15295;42.658;23.374;2022-10-16T04:31:21;17.90;;;11.23;;
27957;SDS011;15295;42.658;23.374;2022-10-16T04:36:54;16.50;;;9.82;;
27957;SDS011;15295;42.658;23.374;2022-10-16T04:43:09;15.55;;;9.43;;
27957;SDS011;15295;42.658;23.374;2022-10-16T04:46:12;15.23;;;10.25;;
27957;SDS011;15295;42.658;23.374;2022-10-16T04:49:38;15.93;;;9.90;;
27957;SDS011;15295;42.658;23.374;2022-10-16T04:56:04;19.55;;;10.35;;
27957;SDS011;15295;42.658;23.374;2022-10-16T04:58:53;11.05;;;7.65;;
27957;SDS011;15295;42.658;23.374;2022-10-16T05:01:32;14.70;;;9.93;;
27957;SDS011;15295;42.658;23.374;2022-10-16T05:05:16;18.85;;;11.60;;
27957;SDS011;15295;42.658;23.374;2022-10-16T05:08:22;17.05;;;10.23;;
27957;SDS011;15295;42.658;23.374;2022-10-16T05:10:57;17.92;;;10.60;;
27957;SDS011;15295;42.658;23.374;2022-10-16T05:13:29;15.98;;;10.77;;
27957;SDS011;15295;42.658;23.374;2022-10-16T05:16:22;18.08;;;10.40;;
27957;SDS011;15295;42.658;23.374;2022-10-16T05:19:06;19.35;;;11.02;;
27957;SDS011;15295;42.658;23.374;2022-10-16T05:28:09;19.25;;;11.02;;
27957;SDS011;15295;42.658;23.374;2022-10-16T05:31:15;18.20;;;11.18;;
27957;SDS011;15295;42.658;23.374;2022-10-16T05:34:00;18.52;;;10.73;;
27957;SDS011;15295;42.658;23.374;2022-10-16T05:36:40;25.33;;;12.02;;
27957;SDS011;15295;42.658;23.374;2022-10-16T05:39:49;18.85;;;9.77;;
27957;SDS011;15295;42.658;23.374;2022-10-16T05:51:53;18.23;;;9.98;;
27957;SDS011;15295;42.658;23.374;2022-10-16T05:54:35;14.77;;;9.30;;
27957;SDS011;15295;42.658;23.374;2022-10-16T06:00:40;12.73;;;8.70;;
27957;SDS011;15295;42.658;23.374;2022-10-16T06:09:47;15.20;;;8.32;;
27957;SDS011;15295;42.658;23.374;2022-10-16T06:13:01;15.35;;;8.90;;
27957;SDS011;15295;42.658;23.374;2022-10-16T06:15:47;12.68;;;8.27;;
27957;SDS011;15295;42.658;23.374;2022-10-16T06:18:29;11.05;;;8.13;;
27957;SDS011;15295;42.658;23.374;2022-10-16T06:21:25;18.20;;;9.25;;
27957;SDS011;15295;42.658;23.374;2022-10-16T06:27:19;19.25;;;8.77;;
27957;SDS011;15295;42.658;23.374;2022-10-16T06:33:10;14.63;;;9.82;;
27957;SDS011;15295;42.658;23.374;2022-10-16T06:41:38;13.15;;;8.75;;
27957;SDS011;15295;42.658;23.374;2022-10-16T06:44:10;16.17;;;9.63;;
27957;SDS011;15295;42.658;23.374;2022-10-16T06:46:37;14.93;;;9.50;;
27957;SDS011;15295;42.658;23.374;2022-10-16T06:49:25;17.33;;;9.63;;
27957;SDS011;15295;42.658;23.374;2022-10-16T06:52:15;16.42;;;10.30;;
27957;SDS011;15295;42.658;23.374;2022-10-16T06:54:49;15.18;;;10.25;;
27957;SDS011;15295;42.658;23.374;2022-10-16T06:57:15;13.45;;;9.27;;
27957;SDS011;15295;42.658;23.374;2022-10-16T06:59:41;15.95;;;9.75;;
27957;SDS011;15295;42.658;23.374;2022-10-16T07:02:10;13.80;;;9.85;;
27957;SDS011;15295;42.658;23.374;2022-10-16T07:07:48;18.88;;;10.00;;
27957;SDS011;15295;42.658;23.374;2022-10-16T07:10:44;20.20;;;9.77;;
27957;SDS011;15295;42.658;23.374;2022-10-16T07:13:35;19.05;;;10.27;;
27957;SDS011;15295;42.658;23.374;2022-10-16T07:16:29;46.70;;;21.30;;
27957;SDS011;15295;42.658;23.374;2022-10-16T07:19:13;70.43;;;28.70;;
27957;SDS011;15295;42.658;23.374;2022-10-16T07:21:43;42.78;;;22.13;;
27957;SDS011;15295;42.658;23.374;2022-10-16T07:24:25;25.95;;;12.30;;
27957;SDS011;15295;42.658;23.374;2022-10-16T07:27:01;18.95;;;10.70;;
27957;SDS011;15295;42.658;23.374;2022-10-16T07:29:47;18.20;;;10.20;;
27957;SDS011;15295;42.658;23.374;2022-10-16T07:32:12;23.48;;;12.00;;
27957;SDS011;15295;42.658;23.374;2022-10-16T07:34:38;18.65;;;10.85;;
27957;SDS011;15295;42.658;23.374;2022-10-16T07:37:04;36.30;;;18.30;;
27957;SDS011;15295;42.658;23.374;2022-10-16T07:39:31;24.85;;;13.00;;
27957;SDS011;15295;42.658;23.374;2022-10-16T07:42:37;19.52;;;11.20;;
27957;SDS011;15295;42.658;23.374;2022-10-16T07:45:57;20.85;;;9.55;;
27957;SDS011;15295;42.658;23.374;2022-10-16T07:48:48;18.27;;;9.98;;
27957;SDS011;15295;42.658;23.374;2022-10-16T08:29:44;12.20;;;6.40;;
27957;SDS011;15295;42.658;23.374;2022-10-16T08:32:10;9.75;;;6.47;;
27957;SDS011;15295;42.658;23.374;2022-10-16T08:34:35;7.88;;;6.30;;
27957;SDS011;15295;42.658;23.374;2022-10-16T08:37:00;13.82;;;6.82;;
27957;SDS011;15295;42.658;23.374;2022-10-16T08:39:27;12.73;;;6.15;;
27957;SDS011;15295;42.658;23.374;2022-10-16T08:45:07;12.32;;;6.80;;
27957;SDS011;15295;42.658;23.374;2022-10-16T08:51:04;9.27;;;5.35;;
27957;SDS011;15295;42.658;23.374;2022-10-16T08:53:36;7.32;;;4.65;;
27957;SDS011;15295;42.658;23.374;2022-10-16T08:56:08;6.30;;;4.03;;
27957;SDS011;15295;42.658;23.374;2022-10-16T09:10:22;7.30;;;4.68;;
27957;SDS011;15295;42.658;23.374;2022-10-16T09:13:59;9.57;;;5.07;;
27957;SDS011;15295;42.658;23.374;2022-10-16T09:16:50;7.35;;;5.05;;
27957;SDS011;15295;42.658;23.374;2022-10-16T09:19:51;11.57;;;4.32;;
27957;SDS011;15295;42.658;23.374;2022-10-16T09:22:36;8.30;;;4.40;;
27957;SDS011;15295;42.658;23.374;2022-10-16T09:25:26;8.02;;;5.47;;
27957;SDS011;15295;42.658;23.374;2022-10-16T09:28:24;10.70;;;4.40;;
27957;SDS011;15295;42.658;23.374;2022-10-16T09:39:01;9.32;;;4.57;;
27957;SDS011;15295;42.658;23.374;2022-10-16T09:41:30;8.82;;;4.53;;
27957;SDS011;15295;42.658;23.374;2022-10-16T09:44:14;7.97;;;4.40;;
27957;SDS011;15295;42.658;23.374;2022-10-16T09:46:48;11.00;;;4.15;;
27957;SDS011;15295;42.658;23.374;2022-10-16T09:49:21;8.35;;;4.53;;
27957;SDS011;15295;42.658;23.374;2022-10-16T10:04:51;6.97;;;4.68;;
27957;SDS011;15295;42.658;23.374;2022-10-16T10:07:35;9.10;;;4.18;;
27957;SDS011;15295;42.658;23.374;2022-10-16T10:10:30;6.18;;;3.65;;
27957;SDS011;15295;42.658;23.374;2022-10-16T10:13:24;7.60;;;3.92;;
27957;SDS011;15295;42.658;23.374;2022-10-16T11:48:23;5.60;;;3.50;;
27957;SDS011;15295;42.658;23.374;2022-10-16T11:51:45;4.72;;;3.13;;
27957;SDS011;15295;42.658;23.374;2022-10-16T11:58:31;4.00;;;3.08;;
27957;SDS011;15295;42.658;23.374;2022-10-16T12:01:21;4.85;;;3.17;;
27957;SDS011;15295;42.658;23.374;2022-10-16T12:06:37;5.20;;;2.83;;
27957;SDS011;15295;42.658;23.374;2022-10-16T14:15:05;7.90;;;3.60;;
27957;SDS011;15295;42.658;23.374;2022-10-16T14:18:13;5.55;;;3.55;;
27957;SDS011;15295;42.658;23.374;2022-10-16T14:21:16;6.90;;;3.90;;
27957;SDS011;15295;42.658;23.374;2022-10-16T14:26:41;7.82;;;3.10;;
27957;SDS011;15295;42.658;23.374;2022-10-16T14:30:24;7.10;;;3.20;;
27957;SDS011;15295;42.658;23.374;2022-10-16T14:36:14;10.48;;;3.30;;
27957;SDS011;15295;42.658;23.374;2022-10-16T14:59:44;6.70;;;4.30;;
27957;SDS011;15295;42.658;23.374;2022-10-16T15:02:27;7.95;;;3.72;;
27957;SDS011;15295;42.658;23.374;2022-10-16T15:05:34;8.30;;;3.88;;
27957;SDS011;15295;42.658;23.374;2022-10-16T15:08:32;6.95;;;3.17;;
27957;SDS011;15295;42.658;23.374;2022-10-16T15:11:27;6.93;;;3.78;;
27957;SDS011;15295;42.658;23.374;2022-10-16T15:14:44;7.70;;;3.50;;
27957;SDS011;15295;42.658;23.374;2022-10-16T15:17:13;6.65;;;3.53;;
27957;SDS011;15295;42.658;23.374;2022-10-16T15:19:55;7.20;;;3.40;;
27957;SDS011;15295;42.658;23.374;2022-10-16T15:22:25;6.05;;;3.53;;
27957;SDS011;15295;42.658;23.374;2022-10-16T15:24:56;7.95;;;4.20;;
27957;SDS011;15295;42.658;23.374;2022-10-16T15:27:37;6.85;;;3.70;;
27957;SDS011;15295;42.658;23.374;2022-10-16T15:30:29;4.90;;;3.33;;
27957;SDS011;15295;42.658;23.374;2022-10-16T15:33:23;9.15;;;3.83;;
27957;SDS011;15295;42.658;23.374;2022-10-16T15:36:13;7.45;;;4.20;;
27957;SDS011;15295;42.658;23.374;2022-10-16T15:38:38;12.68;;;4.35;;
27957;SDS011;15295;42.658;23.374;2022-10-16T15:41:24;6.57;;;3.90;;
27957;SDS011;15295;42.658;23.374;2022-10-16T16:07:16;13.10;;;4.82;;
27957;SDS011;15295;42.658;23.374;2022-10-16T16:09:48;9.25;;;5.38;;
27957;SDS011;15295;42.658;23.374;2022-10-16T16:12:23;8.68;;;5.78;;
27957;SDS011;15295;42.658;23.374;2022-10-16T16:20:50;12.85;;;6.60;;
27957;SDS011;15295;42.658;23.374;2022-10-16T17:02:39;19.58;;;8.95;;
27957;SDS011;15295;42.658;23.374;2022-10-16T17:05:08;20.05;;;10.40;;
27957;SDS011;15295;42.658;23.374;2022-10-16T17:07:52;20.33;;;10.85;;
27957;SDS011;15295;42.658;23.374;2022-10-16T17:10:27;23.85;;;11.77;;
27957;SDS011;15295;42.658;23.374;2022-10-16T17:12:53;31.48;;;11.70;;
27957;SDS011;15295;42.658;23.374;2022-10-16T17:15:18;22.65;;;11.32;;
27957;SDS011;15295;42.658;23.374;2022-10-16T17:17:45;26.27;;;12.48;;
27957;SDS011;15295;42.658;23.374;2022-10-16T17:20:10;33.70;;;12.65;;
27957;SDS011;15295;42.658;23.374;2022-10-16T17:22:36;22.23;;;10.75;;
27957;SDS011;15295;42.658;23.374;2022-10-16T17:25:01;22.42;;;10.85;;
27957;SDS011;15295;42.658;23.374;2022-10-16T17:27:28;19.90;;;10.77;;
27957;SDS011;15295;42.658;23.374;2022-10-16T17:29:54;20.17;;;11.80;;
27957;SDS011;15295;42.658;23.374;2022-10-16T17:32:19;20.55;;;10.98;;
27957;SDS011;15295;42.658;23.374;2022-10-16T17:34:46;20.90;;;9.93;;
27957;SDS011;15295;42.658;23.374;2022-10-16T17:37:12;21.60;;;9.80;;
27957;SDS011;15295;42.658;23.374;2022-10-16T17:39:37;24.77;;;11.13;;
27957;SDS011;15295;42.658;23.374;2022-10-16T17:44:38;27.83;;;10.98;;
27957;SDS011;15295;42.658;23.374;2022-10-16T17:47:04;21.88;;;9.77;;
27957;SDS011;15295;42.658;23.374;2022-10-16T17:49:36;21.33;;;9.52;;
27957;SDS011;15295;42.658;23.374;2022-10-16T17:52:15;17.25;;;8.75;;
27957;SDS011;15295;42.658;23.374;2022-10-16T17:54:46;23.90;;;10.00;;
27957;SDS011;15295;42.658;23.374;2022-10-16T17:57:18;21.70;;;8.50;;
27957;SDS011;15295;42.658;23.374;2022-10-16T17:59:46;20.17;;;8.15;;
27957;SDS011;15295;42.658;23.374;2022-10-16T18:02:19;12.52;;;7.57;;
27957;SDS011;15295;42.658;23.374;2022-10-16T18:04:48;13.70;;;5.88;;
27957;SDS011;15295;42.658;23.374;2022-10-16T18:07:14;12.70;;;6.03;;
27957;SDS011;15295;42.658;23.374;2022-10-16T18:13:17;10.23;;;5.60;;
27957;SDS011;15295;42.658;23.374;2022-10-16T18:16:34;12.40;;;6.60;;
27957;SDS011;15295;42.658;23.374;2022-10-16T18:27:16;10.07;;;5.25;;
27957;SDS011;15295;42.658;23.374;2022-10-16T18:29:47;10.85;;;5.22;;
27957;SDS011;15295;42.658;23.374;2022-10-16T18:32:13;12.48;;;5.47;;
27957;SDS011;15295;42.658;23.374;2022-10-16T18:34:38;10.70;;;5.30;;
27957;SDS011;15295;42.658;23.374;2022-10-16T18:39:45;9.02;;;5.05;;
27957;SDS011;15295;42.658;23.374;2022-10-16T18:42:15;9.88;;;4.78;;
27957;SDS011;15295;42.658;23.374;2022-10-16T18:44:43;9.27;;;4.90;;
27957;SDS011;15295;42.658;23.374;2022-10-16T18:47:12;11.55;;;5.70;;
27957;SDS011;15295;42.658;23.374;2022-10-16T18:49:40;11.73;;;5.50;;
27957;SDS011;15295;42.658;23.374;2022-10-16T18:52:08;10.55;;;6.05;;
27957;SDS011;15295;42.658;23.374;2022-10-16T18:54:33;13.55;;;6.15;;
27957;SDS011;15295;42.658;23.374;2022-10-16T18:57:01;13.80;;;5.72;;
27957;SDS011;15295;42.658;23.374;2022-10-16T18:59:27;11.32;;;5.88;;
27957;SDS011;15295;42.658;23.374;2022-10-16T19:01:59;11.98;;;5.22;;
27957;SDS011;15295;42.658;23.374;2022-10-16T19:04:24;8.93;;;5.75;;
27957;SDS011;15295;42.658;23.374;2022-10-16T19:06:50;14.63;;;7.13;;
27957;SDS011;15295;42.658;23.374;2022-10-16T19:09:24;8.95;;;5.90;;
27957;SDS011;15295;42.658;23.374;2022-10-16T19:11:51;7.72;;;4.82;;
27957;SDS011;15295;42.658;23.374;2022-10-16T19:14:16;13.45;;;5.00;;
27957;SDS011;15295;42.658;23.374;2022-10-16T19:16:54;9.68;;;5.32;;
27957;SDS011;15295;42.658;23.374;2022-10-16T19:19:29;11.70;;;5.80;;
27957;SDS011;15295;42.658;23.374;2022-10-16T19:21:54;11.25;;;5.63;;
27957;SDS011;15295;42.658;23.374;2022-10-16T19:24:35;12.43;;;5.80;;
27957;SDS011;15295;42.658;23.374;2022-10-16T19:27:00;12.73;;;5.70;;
27957;SDS011;15295;42.658;23.374;2022-10-16T19:29:26;9.70;;;5.65;;
27957;SDS011;15295;42.658;23.374;2022-10-16T19:31:59;9.35;;;5.68;;
27957;SDS011;15295;42.658;23.374;2022-10-16T19:34:28;11.68;;;6.18;;
27957;SDS011;15295;42.658;23.374;2022-10-16T19:36:55;11.60;;;5.75;;
27957;SDS011;15295;42.658;23.374;2022-10-16T19:39:26;12.10;;;5.82;;
27957;SDS011;15295;42.658;23.374;2022-10-16T19:41:54;9.02;;;5.13;;
27957;SDS011;15295;42.658;23.374;2022-10-16T19:44:30;11.07;;;5.55;;
27957;SDS011;15295;42.658;23.374;2022-10-16T19:46:56;10.10;;;4.97;;
27957;SDS011;15295;42.658;23.374;2022-10-16T19:49:24;8.35;;;5.10;;
27957;SDS011;15295;42.658;23.374;2022-10-16T19:51:53;9.27;;;5.13;;
27957;SDS011;15295;42.658;23.374;2022-10-16T19:54:20;10.68;;;4.90;;
27957;SDS011;15295;42.658;23.374;2022-10-16T19:56:45;10.05;;;5.78;;
27957;SDS011;15295;42.658;23.374;2022-10-16T19:59:11;10.50;;;5.30;;
27957;SDS011;15295;42.658;23.374;2022-10-16T20:01:39;12.55;;;5.13;;
27957;SDS011;15295;42.658;23.374;2022-10-16T20:04:08;9.65;;;5.10;;
27957;SDS011;15295;42.658;23.374;2022-10-16T20:06:34;11.68;;;5.35;;
27957;SDS011;15295;42.658;23.374;2022-10-16T20:09:00;9.80;;;5.35;;
27957;SDS011;15295;42.658;23.374;2022-10-16T20:11:36;9.52;;;4.72;;
27957;SDS011;15295;42.658;23.374;2022-10-16T20:14:02;8.63;;;5.75;;
27957;SDS011;15295;42.658;23.374;2022-10-16T20:16:29;8.05;;;4.82;;
27957;SDS011;15295;42.658;23.374;2022-10-16T20:18:56;8.40;;;5.63;;
27957;SDS011;15295;42.658;23.374;2022-10-16T20:21:25;10.25;;;5.18;;
27957;SDS011;15295;42.658;23.374;2022-10-16T20:23:52;10.32;;;4.97;;
27957;SDS011;15295;42.658;23.374;2022-10-16T20:26:19;11.57;;;4.85;;
27957;SDS011;15295;42.658;23.374;2022-10-16T20:28:46;17.90;;;5.45;;
27957;SDS011;15295;42.658;23.374;2022-10-16T20:31:13;10.25;;;5.13;;
27957;SDS011;15295;42.658;23.374;2022-10-16T20:34:04;10.13;;;4.88;;
27957;SDS011;15295;42.658;23.374;2022-10-16T20:36:33;11.15;;;5.30;;
27957;SDS011;15295;42.658;23.374;2022-10-16T20:39:04;11.05;;;4.80;;
27957;SDS011;15295;42.658;23.374;2022-10-16T20:41:35;8.98;;;4.90;;
27957;SDS011;15295;42.658;23.374;2022-10-16T20:44:00;10.80;;;5.07;;
27957;SDS011;15295;42.658;23.374;2022-10-16T20:46:27;6.95;;;4.35;;
27957;SDS011;15295;42.658;23.374;2022-10-16T20:48:53;8.27;;;5.13;;
27957;SDS011;15295;42.658;23.374;2022-10-16T20:51:27;7.63;;;4.53;;
27957;SDS011;15295;42.658;23.374;2022-10-16T20:53:55;8.43;;;4.85;;
27957;SDS011;15295;42.658;23.374;2022-10-16T20:56:22;21.60;;;5.25;;
27957;SDS011;15295;42.658;23.374;2022-10-16T20:58:49;8.80;;;4.35;;
27957;SDS011;15295;42.658;23.374;2022-10-16T21:01:16;7.85;;;4.82;;
27957;SDS011;15295;42.658;23.374;2022-10-16T21:03:48;9.13;;;4.93;;
27957;SDS011;15295;42.658;23.374;2022-10-16T21:06:15;10.73;;;4.57;;
27957;SDS011;15295;42.658;23.374;2022-10-16T21:08:41;8.68;;;4.93;;
27957;SDS011;15295;42.658;23.374;2022-10-16T21:11:08;10.15;;;5.05;;
27957;SDS011;15295;42.658;23.374;2022-10-16T21:13:39;7.50;;;5.28;;
27957;SDS011;15295;42.658;23.374;2022-10-16T21:16:05;7.80;;;4.70;;
27957;SDS011;15295;42.658;23.374;2022-10-16T21:18:32;8.02;;;4.63;;
27957;SDS011;15295;42.658;23.374;2022-10-16T21:20:58;13.85;;;5.47;;
27957;SDS011;15295;42.658;23.374;2022-10-16T21:23:24;9.38;;;4.35;;
27957;SDS011;15295;42.658;23.374;2022-10-16T21:26:10;8.65;;;4.25;;
27957;SDS011;15295;42.658;23.374;2022-10-16T21:28:37;9.27;;;5.22;;
27957;SDS011;15295;42.658;23.374;2022-10-16T21:31:09;9.50;;;4.47;;
27957;SDS011;15295;42.658;23.374;2022-10-16T21:33:36;13.02;;;5.15;;
27957;SDS011;15295;42.658;23.374;2022-10-16T21:36:10;7.70;;;4.65;;
27957;SDS011;15295;42.658;23.374;2022-10-16T21:38:36;8.88;;;4.47;;
27957;SDS011;15295;42.658;23.374;2022-10-16T21:41:10;11.45;;;4.40;;
27957;SDS011;15295;42.658;23.374;2022-10-16T21:43:39;7.47;;;4.60;;
27957;SDS011;15295;42.658;23.374;2022-10-16T21:46:05;9.73;;;4.60;;
27957;SDS011;15295;42.658;23.374;2022-10-16T21:48:30;8.82;;;4.85;;
27957;SDS011;15295;42.658;23.374;2022-10-16T21:50:56;8.10;;;4.75;;
27957;SDS011;15295;42.658;23.374;2022-10-16T21:53:23;7.93;;;4.68;;
27957;SDS011;15295;42.658;23.374;2022-10-16T21:55:49;7.80;;;4.78;;
27957;SDS011;15295;42.658;23.374;2022-10-16T21:58:14;7.43;;;4.47;;
27957;SDS011;15295;42.658;23.374;2022-10-16T22:00:42;6.57;;;4.57;;
27957;SDS011;15295;42.658;23.374;2022-10-16T22:06:13;9.95;;;4.93;;
27957;SDS011;15295;42.658;23.374;2022-10-16T22:08:40;9.15;;;5.07;;
27957;SDS011;15295;42.658;23.374;2022-10-16T22:11:28;11.00;;;5.97;;
27957;SDS011;15295;42.658;23.374;2022-10-16T22:14:08;15.02;;;6.35;;
27957;SDS011;15295;42.658;23.374;2022-10-16T22:16:45;11.73;;;5.88;;
27957;SDS011;15295;42.658;23.374;2022-10-16T22:19:13;11.40;;;5.47;;
27957;SDS011;15295;42.658;23.374;2022-10-16T22:21:40;11.00;;;6.47;;
27957;SDS011;15295;42.658;23.374;2022-10-16T22:24:10;11.68;;;6.78;;
27957;SDS011;15295;42.658;23.374;2022-10-16T22:26:35;14.20;;;8.48;;
27957;SDS011;15295;42.658;23.374;2022-10-16T22:29:05;14.68;;;8.02;;
27957;SDS011;15295;42.658;23.374;2022-10-16T22:31:43;19.63;;;9.13;;
27957;SDS011;15295;42.658;23.374;2022-10-16T22:34:11;13.32;;;7.88;;
27957;SDS011;15295;42.658;23.374;2022-10-16T22:36:38;12.63;;;8.70;;
27957;SDS011;15295;42.658;23.374;2022-10-16T22:39:05;22.65;;;10.30;;
27957;SDS011;15295;42.658;23.374;2022-10-16T22:41:30;19.35;;;10.48;;
27957;SDS011;15295;42.658;23.374;2022-10-16T22:44:02;23.10;;;11.88;;
27957;SDS011;15295;42.658;23.374;2022-10-16T22:46:29;24.45;;;11.93;;
27957;SDS011;15295;42.658;23.374;2022-10-16T22:48:57;32.15;;;12.23;;
27957;SDS011;15295;42.658;23.374;2022-10-16T22:51:29;24.33;;;11.45;;
27957;SDS011;15295;42.658;23.374;2022-10-16T22:53:56;29.27;;;13.27;;
27957;SDS011;15295;42.658;23.374;2022-10-16T22:56:22;24.92;;;13.18;;
27957;SDS011;15295;42.658;23.374;2022-10-16T22:58:48;24.48;;;13.18;;
27957;SDS011;15295;42.658;23.374;2022-10-16T23:01:21;24.65;;;12.20;;
27957;SDS011;15295;42.658;23.374;2022-10-16T23:03:52;28.80;;;13.35;;
27957;SDS011;15295;42.658;23.374;2022-10-16T23:06:18;22.67;;;13.05;;
27957;SDS011;15295;42.658;23.374;2022-10-16T23:08:43;24.58;;;13.25;;
27957;SDS011;15295;42.658;23.374;2022-10-16T23:11:10;25.02;;;14.15;;
27957;SDS011;15295;42.658;23.374;2022-10-16T23:13:50;26.52;;;14.65;;
27957;SDS011;15295;42.658;23.374;2022-10-16T23:16:17;24.70;;;14.18;;
27957;SDS011;15295;42.658;23.374;2022-10-16T23:18:43;26.27;;;14.35;;
27957;SDS011;15295;42.658;23.374;2022-10-16T23:21:10;23.70;;;14.18;;
27957;SDS011;15295;42.658;23.374;2022-10-16T23:23:42;23.23;;;14.68;;
27957;SDS011;15295;42.658;23.374;2022-10-16T23:26:09;26.70;;;14.60;;
27957;SDS011;15295;42.658;23.374;2022-10-16T23:28:35;28.42;;;14.07;;
27957;SDS011;15295;42.658;23.374;2022-10-16T23:31:04;26.33;;;14.98;;
27957;SDS011;15295;42.658;23.374;2022-10-16T23:33:38;24.88;;;13.82;;
27957;SDS011;15295;42.658;23.374;2022-10-16T23:36:24;24.88;;;15.05;;
27957;SDS011;15295;42.658;23.374;2022-10-16T23:38:50;27.17;;;15.70;;
27957;SDS011;15295;42.658;23.374;2022-10-16T23:41:16;24.20;;;14.55;;
27957;SDS011;15295;42.658;23.374;2022-10-16T23:43:43;26.48;;;15.32;;
27957;SDS011;15295;42.658;23.374;2022-10-16T23:46:10;31.48;;;14.38;;
27957;SDS011;15295;42.658;23.374;2022-10-16T23:48:36;24.23;;;13.88;;
27957;SDS011;15295;42.658;23.374;2022-10-16T23:51:03;28.45;;;15.52;;
27957;SDS011;15295;42.658;23.374;2022-10-16T23:53:33;28.63;;;16.73;;
27957;SDS011;15295;42.658;23.374;2022-10-16T23:55:58;27.15;;;13.93;;
27957;SDS011;15295;42.658;23.374;2022-10-16T23:58:24;27.25;;;14.75;;
